KDEN/DEN METAR and TAF weather

Enter ICAO airport designator
Station Type Date Time Source
KDEN METAR 2019/02/23 16:53 UTC NOAA

KDEN 231653Z 22005KT 6SM BR FEW070 FEW120 BKN200 M04/M06 A2982 RMK AO2 SLP127 T10441061


Station Type Date Time Source
KDEN Decoded METAR 2019/02/23 16:53 UTC NOAA

DENVER INTERNATIONAL AIRPORT, CO, United States (KDEN) 39-52N 104-40W 1640M
Feb 23, 2019 - 11:53 AM EST / 2019.02.23 1653 UTC
Wind: from the SW (220 degrees) at 6 MPH (5 KT):0
Visibility: 6 mile(s):0
Sky conditions: mostly cloudy
Weather: mist
Temperature: 24.1 F (-4.4 C)
Windchill: 17 F (-8 C):1
Dew Point: 21.0 F (-6.1 C)
Relative Humidity: 87%
Pressure (altimeter): 29.82 in. Hg (1009 hPa)
ob: KDEN 231653Z 22005KT 6SM BR FEW070 FEW120 BKN200 M04/M06 A2982 RMK AO2 SLP127 T10441061
cycle: 17

Station Type Date Time Source
KDEN TAF 2019/02/23 16:30 UTC NOAA

TAF
AMD KDEN 231629Z 2316/2418 23005KT 4SM BR SCT120 BKN220
FM231730 27007KT P6SM FEW120 BKN220
FM231900 33013KT P6SM SCT220
FM232100 32017G28KT P6SM FEW120
FM240100 27011KT P6SM FEW220
FM240500 22011KT P6SM SKC


Example: see airport list